createdAt,value
2018-03-07T00:02:10.558Z,171.10
2018-03-07T00:04:39.691Z,169.70
2018-03-07T00:07:08.854Z,166.40
2018-03-07T00:09:38.405Z,175.23
2018-03-07T00:12:07.547Z,182.50
2018-03-07T00:14:36.727Z,187.97
2018-03-07T00:17:05.889Z,169.80
2018-03-07T00:19:35.030Z,180.13
2018-03-07T00:22:04.182Z,188.47
2018-03-07T00:24:33.379Z,184.77
2018-03-07T00:27:02.526Z,175.63
2018-03-07T00:29:31.674Z,191.30
2018-03-07T00:32:00.842Z,174.43
2018-03-07T00:34:29.990Z,180.17
2018-03-07T00:36:59.139Z,179.67
2018-03-07T00:39:28.629Z,180.43
2018-03-07T00:41:57.769Z,185.43
2018-03-07T00:44:26.921Z,171.27
2018-03-07T00:46:56.101Z,174.63
2018-03-07T00:49:25.273Z,179.57
2018-03-07T00:51:54.459Z,171.40
2018-03-07T00:54:23.597Z,190.27
2018-03-07T00:56:52.776Z,173.37
2018-03-07T00:59:21.912Z,181.30
2018-03-07T01:01:51.054Z,183.33
2018-03-07T01:04:20.227Z,182.63
2018-03-07T01:06:49.362Z,180.30
2018-03-07T01:09:18.498Z,169.90
2018-03-07T01:11:48.091Z,183.67
2018-03-07T01:14:17.232Z,162.83
2018-03-07T01:16:46.370Z,163.20
2018-03-07T01:19:15.537Z,169.60
2018-03-07T01:21:44.690Z,170.73
2018-03-07T01:24:13.833Z,195.50
2018-03-07T01:26:42.993Z,175.23
2018-03-07T01:29:12.138Z,196.00
2018-03-07T01:31:41.283Z,183.10
2018-03-07T01:34:10.472Z,183.17
2018-03-07T01:36:39.613Z,185.43
2018-03-07T01:39:08.754Z,188.53
2018-03-07T01:41:38.253Z,193.70
2018-03-07T01:44:07.474Z,201.77
2018-03-07T01:46:36.638Z,189.23
2018-03-07T01:49:05.809Z,189.30
2018-03-07T01:51:40.839Z,205.00
2018-03-07T01:54:10.013Z,199.50
2018-03-07T01:56:39.170Z,186.00
2018-03-07T01:59:08.361Z,200.97
2018-03-07T02:01:37.502Z,193.30
2018-03-07T02:04:06.633Z,178.97
2018-03-07T02:06:35.830Z,218.20
2018-03-07T02:09:04.970Z,187.30
2018-03-07T02:11:34.119Z,206.37
2018-03-07T02:14:03.302Z,226.90
2018-03-07T02:16:32.469Z,206.33
2018-03-07T02:19:01.606Z,209.77
2018-03-07T02:21:30.753Z,220.00
2018-03-07T02:23:59.989Z,203.97
2018-03-07T02:26:29.137Z,201.47
2018-03-07T02:28:58.273Z,189.17
2018-03-07T02:31:27.445Z,202.33
2018-03-07T02:33:56.613Z,196.47
2018-03-07T02:36:30.630Z,188.73
2018-03-07T02:38:59.790Z,192.57
2018-03-07T02:41:28.938Z,195.60
2018-03-07T02:43:58.078Z,213.10
2018-03-07T02:46:27.336Z,205.10
2018-03-07T02:48:56.493Z,205.90
2018-03-07T02:51:25.647Z,194.67
2018-03-07T02:53:54.902Z,214.20
2018-03-07T02:56:23.961Z,200.23
2018-03-07T02:58:53.110Z,212.37
2018-03-07T03:01:22.287Z,186.97
2018-03-07T03:03:51.433Z,194.97
2018-03-07T03:06:20.572Z,184.50
2018-03-07T03:08:49.733Z,201.70
2018-03-07T03:11:19.697Z,187.67
2018-03-07T03:13:48.842Z,191.07
2018-03-07T03:16:18.005Z,208.30
2018-03-07T03:18:47.167Z,203.20
2018-03-07T03:21:16.298Z,199.37
2018-03-07T03:23:45.458Z,209.97
2018-03-07T03:26:14.600Z,219.30
2018-03-07T03:28:43.898Z,197.27
2018-03-07T03:31:13.065Z,188.67
2018-03-07T03:33:42.198Z,201.93
2018-03-07T03:36:11.341Z,219.20
2018-03-07T03:38:40.515Z,215.80
2018-03-07T03:41:09.653Z,220.60
2018-03-07T03:43:38.786Z,223.87
2018-03-07T03:46:07.954Z,212.90
2018-03-07T03:48:37.091Z,211.37
2018-03-07T03:51:06.234Z,224.80
2018-03-07T03:53:35.486Z,210.87
2018-03-07T03:56:04.625Z,220.03
2018-03-07T03:58:33.778Z,213.83
2018-03-07T04:01:02.942Z,217.17
2018-03-07T04:03:32.081Z,209.73
2018-03-07T04:06:01.220Z,205.00
2018-03-07T04:08:30.390Z,211.03
2018-03-07T04:10:59.541Z,220.90
2018-03-07T04:13:28.682Z,212.57
2018-03-07T04:15:57.856Z,201.87
2018-03-07T04:18:27.025Z,190.83
2018-03-07T04:20:56.159Z,195.10
2018-03-07T04:23:25.323Z,202.70
2018-03-07T04:25:54.490Z,195.07
2018-03-07T04:28:23.637Z,200.27
2018-03-07T04:30:52.809Z,185.23
2018-03-07T04:33:21.958Z,200.03
2018-03-07T04:35:51.105Z,185.27
2018-03-07T04:38:20.271Z,211.13
2018-03-07T04:40:49.460Z,234.63
2018-03-07T04:43:18.603Z,224.50
2018-03-07T04:45:47.741Z,207.50
2018-03-07T04:48:16.910Z,211.47
2018-03-07T04:50:46.069Z,203.10
2018-03-07T04:53:15.208Z,200.13
2018-03-07T04:55:44.349Z,193.43
2018-03-07T04:58:13.529Z,199.43
2018-03-07T05:00:42.657Z,211.17
2018-03-07T05:03:11.804Z,193.63
2018-03-07T05:05:40.946Z,206.03
2018-03-07T05:08:10.098Z,204.50
2018-03-07T05:10:39.276Z,197.33
2018-03-07T05:13:08.447Z,198.10
2018-03-07T05:15:37.578Z,197.83
2018-03-07T05:18:06.750Z,198.20
2018-03-07T05:20:35.938Z,197.50
2018-03-07T05:23:05.076Z,214.63
2018-03-07T05:25:34.232Z,191.40
2018-03-07T05:28:03.401Z,184.17
2018-03-07T05:30:32.555Z,188.93
2018-03-07T05:33:01.711Z,192.77
2018-03-07T05:35:30.898Z,181.93
2018-03-07T05:38:00.080Z,180.70
2018-03-07T05:40:29.235Z,168.97
2018-03-07T05:42:58.392Z,172.07
2018-03-07T05:45:27.579Z,168.03
2018-03-07T05:47:56.726Z,176.30
2018-03-07T05:50:25.901Z,176.70
2018-03-07T05:52:55.081Z,171.33
2018-03-07T05:55:24.512Z,173.63
2018-03-07T05:57:53.678Z,190.17
2018-03-07T06:00:22.830Z,153.70
2018-03-07T06:02:51.961Z,177.57
2018-03-07T06:05:21.156Z,165.40
2018-03-07T06:07:50.302Z,156.67
2018-03-07T06:10:19.914Z,170.20
2018-03-07T06:12:49.083Z,169.00
2018-03-07T06:15:18.230Z,157.67
2018-03-07T06:17:47.365Z,160.53
2018-03-07T06:20:16.547Z,155.70
2018-03-07T06:22:45.692Z,157.53
2018-03-07T06:25:14.867Z,164.40
2018-03-07T06:27:44.015Z,165.40
2018-03-07T06:30:13.150Z,157.73
2018-03-07T06:32:42.305Z,158.63
2018-03-07T06:35:11.472Z,159.20
2018-03-07T06:37:40.645Z,152.30
2018-03-07T06:40:09.783Z,153.57
2018-03-07T06:42:38.925Z,145.53
2018-03-07T06:45:08.109Z,142.40
2018-03-07T06:47:37.236Z,145.90
2018-03-07T06:50:06.397Z,143.60
2018-03-07T06:52:35.578Z,140.60
2018-03-07T06:55:04.722Z,153.77
2018-03-07T06:57:33.865Z,145.47
2018-03-07T07:00:03.029Z,143.57
2018-03-07T07:02:32.197Z,139.73
2018-03-07T07:05:01.338Z,129.93
2018-03-07T07:07:30.493Z,128.77
2018-03-07T07:09:59.666Z,126.47
2018-03-07T07:12:28.844Z,131.70
2018-03-07T07:14:57.990Z,132.20
2018-03-07T07:17:27.166Z,128.57
2018-03-07T07:19:56.306Z,128.67
2018-03-07T07:22:25.491Z,133.23
2018-03-07T07:24:54.641Z,129.17
2018-03-07T07:27:23.796Z,131.27
2018-03-07T07:29:52.987Z,137.80
2018-03-07T07:32:22.130Z,136.57
2018-03-07T07:34:51.510Z,137.17
2018-03-07T07:37:20.733Z,143.93
2018-03-07T07:39:49.837Z,143.50
2018-03-07T07:42:18.997Z,144.13
2018-03-07T07:44:48.137Z,146.13
2018-03-07T07:47:17.319Z,144.73
2018-03-07T07:49:46.461Z,140.33
2018-03-07T07:52:15.607Z,142.33
2018-03-07T07:54:44.752Z,135.90
2018-03-07T07:57:14.283Z,133.70
2018-03-07T07:59:43.421Z,128.47
2018-03-07T08:02:12.565Z,130.47
2018-03-07T08:04:41.762Z,124.97
2018-03-07T08:07:10.914Z,127.87
2018-03-07T08:09:40.054Z,124.50
2018-03-07T08:12:09.254Z,123.10
2018-03-07T08:14:38.441Z,119.77
2018-03-07T08:17:07.586Z,110.13
2018-03-07T08:19:36.734Z,124.37
2018-03-07T08:22:05.893Z,126.93
2018-03-07T08:24:35.041Z,130.87
2018-03-07T08:27:04.262Z,128.30
2018-03-07T08:29:33.400Z,124.63
2018-03-07T08:32:02.587Z,125.00
2018-03-07T08:34:31.721Z,127.63
2018-03-07T08:37:00.901Z,109.73
2018-03-07T08:39:30.075Z,106.57
2018-03-07T08:41:59.217Z,113.93
2018-03-07T08:44:28.358Z,107.10
2018-03-07T08:46:57.535Z,111.70
2018-03-07T08:49:26.683Z,104.73
2018-03-07T08:51:55.836Z,107.27
2018-03-07T08:54:25.005Z,104.37
2018-03-07T08:56:54.145Z,94.57
2018-03-07T08:59:24.552Z,96.70
2018-03-07T09:01:53.714Z,97.80
2018-03-07T09:04:22.862Z,91.90
2018-03-07T09:06:52.007Z,90.97
2018-03-07T09:09:21.198Z,92.43
2018-03-07T09:11:50.331Z,89.77
2018-03-07T09:14:19.478Z,89.87
2018-03-07T09:16:48.666Z,92.23
2018-03-07T09:19:17.914Z,94.10
2018-03-07T09:21:47.059Z,90.27
2018-03-07T09:24:16.207Z,88.20
2018-03-07T09:26:45.374Z,91.27
2018-03-07T09:29:14.510Z,86.43
2018-03-07T09:31:43.675Z,80.80
2018-03-07T09:34:12.837Z,78.87
2018-03-07T09:36:41.973Z,79.40
2018-03-07T09:39:11.120Z,80.47
2018-03-07T09:41:40.285Z,80.57
2018-03-07T09:44:09.429Z,81.47
2018-03-07T09:46:38.567Z,79.07
2018-03-07T09:49:07.765Z,81.57
2018-03-07T09:51:37.500Z,84.30
2018-03-07T09:54:06.678Z,79.47
2018-03-07T09:56:35.919Z,79.23
2018-03-07T09:59:05.031Z,78.80
2018-03-07T10:01:34.204Z,80.20
2018-03-07T10:04:03.348Z,79.50
2018-03-07T10:06:32.526Z,80.30
2018-03-07T10:09:01.670Z,78.60
2018-03-07T10:11:30.835Z,81.77
2018-03-07T10:13:59.986Z,78.67
2018-03-07T10:16:29.140Z,79.47
2018-03-07T10:18:58.345Z,81.87
2018-03-07T10:21:27.483Z,82.17
2018-03-07T10:23:57.921Z,80.97
2018-03-07T10:26:27.057Z,79.80
2018-03-07T10:28:56.194Z,80.60
2018-03-07T10:31:25.368Z,81.63
2018-03-07T10:33:54.566Z,80.57
2018-03-07T10:36:23.702Z,81.60
2018-03-07T10:38:52.865Z,80.70
2018-03-07T10:41:22.002Z,83.30
2018-03-07T10:43:51.157Z,82.63
2018-03-07T10:46:20.327Z,82.13
2018-03-07T10:48:49.474Z,79.70
2018-03-07T10:51:18.626Z,79.40
2018-03-07T10:53:47.821Z,82.23
2018-03-07T10:56:16.999Z,112.40
2018-03-07T10:58:46.142Z,78.13
2018-03-07T11:01:15.275Z,78.40
2018-03-07T11:03:44.622Z,77.57
2018-03-07T11:06:13.770Z,76.50
2018-03-07T11:08:42.917Z,76.63
2018-03-07T11:11:12.102Z,79.07
2018-03-07T11:13:41.240Z,75.83
2018-03-07T11:16:10.387Z,77.80
2018-03-07T11:18:39.550Z,77.57
2018-03-07T11:21:08.699Z,79.63
2018-03-07T11:23:37.842Z,79.77
2018-03-07T11:26:07.017Z,84.17
2018-03-07T11:28:36.222Z,83.07
2018-03-07T11:31:05.346Z,81.10
2018-03-07T11:33:34.546Z,79.07
2018-03-07T11:36:03.694Z,79.30
2018-03-07T11:38:32.835Z,81.00
2018-03-07T11:41:01.996Z,80.00
2018-03-07T11:43:31.137Z,80.60
2018-03-07T11:46:00.303Z,78.43
2018-03-07T11:48:29.447Z,79.00
2018-03-07T11:50:58.610Z,80.07
2018-03-07T11:53:27.758Z,80.00
2018-03-07T11:55:56.909Z,80.10
2018-03-07T11:58:26.094Z,80.30
2018-03-07T12:00:55.283Z,84.77
2018-03-07T12:03:24.419Z,82.20
2018-03-07T12:05:53.595Z,80.17
2018-03-07T12:08:22.766Z,81.87
2018-03-07T12:10:51.942Z,80.50
2018-03-07T12:13:21.646Z,79.40
2018-03-07T12:15:50.793Z,79.57
2018-03-07T12:18:19.977Z,81.57
2018-03-07T12:20:49.126Z,80.37
2018-03-07T12:23:18.278Z,81.40
2018-03-07T12:25:47.682Z,81.90
2018-03-07T12:28:16.823Z,85.30
2018-03-07T12:30:45.961Z,82.97
2018-03-07T12:33:15.174Z,81.17
2018-03-07T12:35:44.310Z,81.60
2018-03-07T12:38:13.526Z,81.37
2018-03-07T12:40:42.675Z,83.50
2018-03-07T12:43:11.826Z,80.70
2018-03-07T12:45:41.011Z,80.37
2018-03-07T12:48:10.235Z,80.20
2018-03-07T12:50:39.367Z,80.93
2018-03-07T12:53:08.534Z,80.83
2018-03-07T12:55:37.705Z,81.97
2018-03-07T12:58:06.918Z,80.67
2018-03-07T13:00:36.069Z,80.57
2018-03-07T13:03:05.229Z,81.70
2018-03-07T13:05:34.396Z,80.90
2018-03-07T13:08:04.266Z,78.97
2018-03-07T13:10:33.425Z,78.97
2018-03-07T13:13:02.629Z,78.80
2018-03-07T13:15:31.800Z,81.40
2018-03-07T13:18:00.950Z,94.73
2018-03-07T13:20:30.260Z,78.37
2018-03-07T13:22:59.455Z,80.40
2018-03-07T13:25:28.606Z,81.30
2018-03-07T13:27:58.212Z,89.10
2018-03-07T13:30:27.405Z,83.90
2018-03-07T13:32:56.543Z,81.27
2018-03-07T13:35:25.684Z,80.30
2018-03-07T13:37:54.863Z,83.57
2018-03-07T13:40:24.010Z,80.33
2018-03-07T13:42:53.174Z,80.77
2018-03-07T13:45:22.317Z,81.87
2018-03-07T13:47:51.483Z,81.83
2018-03-07T13:50:20.616Z,80.47
2018-03-07T13:52:49.752Z,82.10
2018-03-07T13:55:18.897Z,80.87
2018-03-07T13:57:48.050Z,80.67
2018-03-07T14:00:17.213Z,83.40
2018-03-07T14:02:46.373Z,84.07
2018-03-07T14:05:15.562Z,81.03
2018-03-07T14:07:44.702Z,80.70
2018-03-07T14:10:13.885Z,82.50
2018-03-07T14:12:43.083Z,80.17
2018-03-07T14:15:12.247Z,81.33
2018-03-07T14:17:41.398Z,79.90
2018-03-07T14:20:10.576Z,81.17
2018-03-07T14:22:39.746Z,92.23
2018-03-07T14:25:08.878Z,83.17
2018-03-07T14:27:38.039Z,80.97
2018-03-07T14:30:07.327Z,80.80
2018-03-07T14:32:36.543Z,99.87
2018-03-07T14:35:05.740Z,92.40
2018-03-07T14:37:35.082Z,83.40
2018-03-07T14:40:04.235Z,80.90
2018-03-07T14:42:33.494Z,83.33
2018-03-07T14:45:02.603Z,83.77
2018-03-07T14:47:31.734Z,82.87
2018-03-07T14:50:01.006Z,82.67
2018-03-07T14:52:30.166Z,82.60
2018-03-07T14:54:59.307Z,82.00
2018-03-07T14:57:28.528Z,83.63
2018-03-07T14:59:57.665Z,82.80
2018-03-07T15:02:26.805Z,81.20
2018-03-07T15:04:55.969Z,84.47
2018-03-07T15:07:25.129Z,82.53
2018-03-07T15:09:54.318Z,81.53
2018-03-07T15:12:23.493Z,81.00
2018-03-07T15:14:52.637Z,85.37
2018-03-07T15:17:21.790Z,84.03
2018-03-07T15:19:50.982Z,82.30
2018-03-07T15:22:20.130Z,80.57
2018-03-07T15:24:49.272Z,82.23
2018-03-07T15:27:18.438Z,81.67
2018-03-07T15:29:47.614Z,82.53
2018-03-07T15:32:16.795Z,83.30
2018-03-07T15:34:45.928Z,83.93
2018-03-07T15:40:02.158Z,83.50
2018-03-07T15:42:31.327Z,84.30
2018-03-07T15:45:00.516Z,84.77
2018-03-07T15:47:29.662Z,83.40
2018-03-07T15:49:59.811Z,82.97
2018-03-07T15:52:29.011Z,82.10
2018-03-07T15:54:58.226Z,82.97
2018-03-07T15:57:27.363Z,81.70
2018-03-07T15:59:56.532Z,83.67
2018-03-07T16:02:25.691Z,83.17
2018-03-07T16:04:54.833Z,85.30
2018-03-07T16:07:23.974Z,85.33
2018-03-07T16:09:53.122Z,83.17
2018-03-07T16:12:22.301Z,82.00
2018-03-07T16:14:51.470Z,82.40
2018-03-07T16:17:20.610Z,83.80
2018-03-07T16:19:49.752Z,82.40
2018-03-07T16:22:18.934Z,83.47
2018-03-07T16:24:48.082Z,81.77
2018-03-07T16:27:17.239Z,83.30
2018-03-07T16:29:46.426Z,82.93
2018-03-07T16:32:15.568Z,83.20
2018-03-07T16:34:44.734Z,87.33
2018-03-07T16:37:13.903Z,86.20
2018-03-07T16:39:43.050Z,84.90
2018-03-07T16:42:12.182Z,83.97
2018-03-07T16:44:41.412Z,83.53
2018-03-07T16:47:10.523Z,84.20
2018-03-07T16:49:39.715Z,83.67
2018-03-07T16:52:08.898Z,86.50
2018-03-07T16:54:38.045Z,83.47
2018-03-07T16:57:07.218Z,83.27
2018-03-07T16:59:36.359Z,83.37
2018-03-07T17:02:05.509Z,88.50
2018-03-07T17:04:34.675Z,84.17
2018-03-07T17:07:03.819Z,85.37
2018-03-07T17:09:33.006Z,86.10
2018-03-07T17:12:02.163Z,85.10
2018-03-07T17:14:31.295Z,86.37
2018-03-07T17:17:00.459Z,87.30
2018-03-07T17:19:29.603Z,87.77
2018-03-07T17:21:58.739Z,86.07
2018-03-07T17:24:27.925Z,86.07
2018-03-07T17:26:57.076Z,85.97
2018-03-07T17:29:26.206Z,85.80
2018-03-07T17:31:55.378Z,86.47
2018-03-07T17:34:24.526Z,89.60
2018-03-07T17:36:53.661Z,87.07
2018-03-07T17:39:22.842Z,85.07
2018-03-07T17:41:52.000Z,86.43
2018-03-07T17:44:21.158Z,86.27
2018-03-07T17:46:50.329Z,85.60
2018-03-07T17:49:19.476Z,89.93
2018-03-07T17:51:48.629Z,88.07
2018-03-07T17:54:17.811Z,86.47
2018-03-07T17:56:46.991Z,89.00
2018-03-07T17:59:16.143Z,92.90
2018-03-07T18:01:45.291Z,88.40
2018-03-07T18:04:14.494Z,87.40
2018-03-07T18:06:43.622Z,85.40
2018-03-07T18:09:12.873Z,86.50
2018-03-07T18:11:42.044Z,89.47
2018-03-07T18:14:11.212Z,85.90
2018-03-07T18:16:40.354Z,86.90
2018-03-07T18:19:09.496Z,87.70
2018-03-07T18:21:38.681Z,103.00
2018-03-07T18:24:07.810Z,90.33
2018-03-07T18:26:36.992Z,88.07
2018-03-07T18:29:06.145Z,104.80
2018-03-07T18:31:35.314Z,98.37
2018-03-07T18:34:04.458Z,99.23
2018-03-07T18:36:33.630Z,97.20
2018-03-07T18:39:02.787Z,89.53
2018-03-07T18:41:31.960Z,85.50
2018-03-07T18:44:01.139Z,85.80
2018-03-07T18:46:30.291Z,85.97
2018-03-07T18:48:59.427Z,86.67
2018-03-07T18:51:28.579Z,86.70
2018-03-07T18:53:57.840Z,93.60
2018-03-07T18:56:26.977Z,85.00
2018-03-07T18:58:56.108Z,86.80
2018-03-07T19:01:25.295Z,85.87
2018-03-07T19:03:54.468Z,86.13
2018-03-07T19:06:23.626Z,88.07
2018-03-07T19:08:52.763Z,85.07
2018-03-07T19:11:22.478Z,85.77
2018-03-07T19:13:51.638Z,98.80
2018-03-07T19:16:20.790Z,87.63
2018-03-07T19:18:49.966Z,87.57
2018-03-07T19:21:19.106Z,86.80
2018-03-07T19:23:48.247Z,90.87
2018-03-07T19:26:17.429Z,87.40
2018-03-07T19:28:46.568Z,87.40
2018-03-07T19:31:15.762Z,86.87
2018-03-07T19:33:44.912Z,88.60
2018-03-07T19:36:14.047Z,86.47
2018-03-07T19:38:43.258Z,88.37
2018-03-07T19:41:12.411Z,87.43
2018-03-07T19:43:41.550Z,88.60
2018-03-07T19:46:10.764Z,87.90
2018-03-07T19:48:39.942Z,89.53
2018-03-07T19:51:09.093Z,93.57
2018-03-07T19:53:38.241Z,91.77
2018-03-07T19:56:07.426Z,102.70
2018-03-07T19:58:36.568Z,175.00
2018-03-07T20:01:05.725Z,107.13
2018-03-07T20:03:34.913Z,98.80
2018-03-07T20:06:04.091Z,100.07
2018-03-07T20:08:33.245Z,97.10
2018-03-07T20:11:02.426Z,97.83
2018-03-07T20:13:31.561Z,95.00
2018-03-07T20:16:00.881Z,107.60
2018-03-07T20:18:30.027Z,98.90
2018-03-07T20:20:59.181Z,118.07
2018-03-07T20:23:28.365Z,144.10
2018-03-07T20:25:57.526Z,127.67
2018-03-07T20:28:26.682Z,108.40
2018-03-07T20:30:55.881Z,104.77
2018-03-07T20:33:25.026Z,98.40
2018-03-07T20:35:54.188Z,105.93
2018-03-07T20:38:23.337Z,109.80
2018-03-07T20:40:52.553Z,102.43
2018-03-07T20:43:21.691Z,100.47
2018-03-07T20:45:50.874Z,97.87
2018-03-07T20:48:20.044Z,107.27
2018-03-07T20:50:49.198Z,98.40
2018-03-07T20:53:18.370Z,102.67
2018-03-07T20:55:47.510Z,94.77
2018-03-07T20:58:16.742Z,107.33
2018-03-07T21:00:45.966Z,103.50
2018-03-07T21:03:15.123Z,98.87
2018-03-07T21:05:44.270Z,102.30
2018-03-07T21:08:13.453Z,99.23
2018-03-07T21:10:42.604Z,97.27
2018-03-07T21:13:11.745Z,99.00
2018-03-07T21:15:40.913Z,95.47
2018-03-07T21:18:10.072Z,99.77
2018-03-07T21:20:39.223Z,94.40
2018-03-07T21:23:08.411Z,94.60
2018-03-07T21:25:37.554Z,95.37
2018-03-07T21:28:06.849Z,96.37
2018-03-07T21:30:35.987Z,93.97
2018-03-07T21:33:05.141Z,96.57
2018-03-07T21:35:34.329Z,95.50
2018-03-07T21:38:03.530Z,104.30
2018-03-07T21:40:32.715Z,106.33
2018-03-07T21:43:01.854Z,102.33
2018-03-07T21:45:31.077Z,101.20
2018-03-07T21:48:00.218Z,95.70
2018-03-07T21:50:29.387Z,94.93
2018-03-07T21:52:58.565Z,96.77
2018-03-07T21:55:27.720Z,94.07
2018-03-07T21:57:57.777Z,95.17
2018-03-07T22:00:27.018Z,95.03
2018-03-07T22:02:56.175Z,96.20
2018-03-07T22:05:25.353Z,96.77
2018-03-07T22:07:54.512Z,97.30
2018-03-07T22:10:23.699Z,96.60
2018-03-07T22:12:52.841Z,99.00
2018-03-07T22:15:21.977Z,95.97
2018-03-07T22:17:51.267Z,99.70
2018-03-07T22:20:20.411Z,100.17
2018-03-07T22:22:49.558Z,99.47
2018-03-07T22:25:18.743Z,101.20
2018-03-07T22:27:47.914Z,101.57
2018-03-07T22:30:17.066Z,101.57
2018-03-07T22:32:46.212Z,103.17
2018-03-07T22:35:15.389Z,103.77
2018-03-07T22:37:44.581Z,103.90
2018-03-07T22:40:13.763Z,105.20
2018-03-07T22:42:42.914Z,113.57
2018-03-07T22:45:12.100Z,108.00
2018-03-07T22:47:41.245Z,106.53
2018-03-07T22:50:10.392Z,117.77
2018-03-07T22:52:39.581Z,109.30
2018-03-07T22:55:08.750Z,111.63
2018-03-07T22:57:37.891Z,106.30
2018-03-07T23:00:21.965Z,109.20
2018-03-07T23:02:51.114Z,105.90
2018-03-07T23:05:20.258Z,105.27
2018-03-07T23:07:49.505Z,104.03
2018-03-07T23:10:18.643Z,103.47
2018-03-07T23:12:47.803Z,103.90
2018-03-07T23:15:16.997Z,105.37
2018-03-07T23:17:46.166Z,104.47
2018-03-07T23:20:15.449Z,104.27
2018-03-07T23:22:44.609Z,102.80
2018-03-07T23:25:14.449Z,104.10
2018-03-07T23:27:50.433Z,103.43
2018-03-07T23:30:19.579Z,100.90
2018-03-07T23:32:48.718Z,101.70
2018-03-07T23:35:18.256Z,102.77
2018-03-07T23:37:47.418Z,100.97
2018-03-07T23:40:16.569Z,102.60
2018-03-07T23:42:45.830Z,102.07
2018-03-07T23:45:15.014Z,100.77
2018-03-07T23:47:44.165Z,101.73
2018-03-07T23:50:13.444Z,101.17
2018-03-07T23:52:42.586Z,105.03
2018-03-07T23:55:11.802Z,102.80
2018-03-07T23:57:40.954Z,102.63
